Terminal Aerodrome Forecast
Issued by NWS Sterling, VA

Home | Current Version | Previous Version | Text Only | Print | Product List | Glossary On
Versions: 1 2 3 4 5 6 7 8 9 10 11 12 13 14 15 16 17 18 19 20
000
FTUS41 KLWX 201210 AAA
TAFMRB
TAF AMD
KMRB 201210Z 2012/2112 VRB03KT 6SM BR SCT002
     FM201400 32008G16KT P6SM SCT050 SCT200
     FM210000 VRB03KT P6SM SCT200
     FM210600 VRB03KT 3SM BR SCT200=

USA.gov is the U.S. government's official web portal to all federal, state and local government web resources and services.